sensor_id;sensor_type;location;lat;lon;timestamp;P1;durP1;ratioP1;P2;durP2;ratioP2
7737;SDS011;29398;45.328;5.558;2023-05-14T00:00:45;8.75;;;6.90;;
7737;SDS011;29398;45.328;5.558;2023-05-14T00:01:48;8.73;;;7.47;;
7737;SDS011;29398;45.328;5.558;2023-05-14T00:02:51;11.40;;;8.80;;
7737;SDS011;29398;45.328;5.558;2023-05-14T00:03:53;12.63;;;8.80;;
7737;SDS011;29398;45.328;5.558;2023-05-14T00:04:54;8.90;;;7.90;;
7737;SDS011;29398;45.328;5.558;2023-05-14T00:05:56;15.50;;;9.57;;
7737;SDS011;29398;45.328;5.558;2023-05-14T00:06:57;11.20;;;8.48;;
7737;SDS011;29398;45.328;5.558;2023-05-14T00:08:00;10.25;;;8.80;;
7737;SDS011;29398;45.328;5.558;2023-05-14T00:09:01;9.65;;;8.25;;
7737;SDS011;29398;45.328;5.558;2023-05-14T00:10:03;9.25;;;7.95;;
7737;SDS011;29398;45.328;5.558;2023-05-14T00:11:05;11.10;;;8.88;;
7737;SDS011;29398;45.328;5.558;2023-05-14T00:12:09;12.10;;;8.30;;
7737;SDS011;29398;45.328;5.558;2023-05-14T00:13:10;9.05;;;7.90;;
7737;SDS011;29398;45.328;5.558;2023-05-14T00:14:12;8.88;;;7.95;;
7737;SDS011;29398;45.328;5.558;2023-05-14T00:15:13;14.30;;;9.10;;
7737;SDS011;29398;45.328;5.558;2023-05-14T00:16:15;10.00;;;8.82;;
7737;SDS011;29398;45.328;5.558;2023-05-14T00:17:16;10.70;;;8.50;;
7737;SDS011;29398;45.328;5.558;2023-05-14T00:18:18;11.38;;;8.70;;
7737;SDS011;29398;45.328;5.558;2023-05-14T00:19:19;10.30;;;7.53;;
7737;SDS011;29398;45.328;5.558;2023-05-14T00:20:22;11.68;;;8.55;;
7737;SDS011;29398;45.328;5.558;2023-05-14T00:21:23;8.45;;;7.03;;
7737;SDS011;29398;45.328;5.558;2023-05-14T00:22:25;9.82;;;7.45;;
7737;SDS011;29398;45.328;5.558;2023-05-14T00:23:26;9.57;;;7.50;;
7737;SDS011;29398;45.328;5.558;2023-05-14T00:24:28;11.32;;;8.13;;
7737;SDS011;29398;45.328;5.558;2023-05-14T00:25:29;8.13;;;7.22;;
7737;SDS011;29398;45.328;5.558;2023-05-14T00:26:31;7.43;;;6.72;;
7737;SDS011;29398;45.328;5.558;2023-05-14T00:27:34;8.65;;;7.18;;
7737;SDS011;29398;45.328;5.558;2023-05-14T00:28:36;7.75;;;7.00;;
7737;SDS011;29398;45.328;5.558;2023-05-14T00:29:38;8.90;;;6.95;;
7737;SDS011;29398;45.328;5.558;2023-05-14T00:30:40;8.75;;;7.72;;
7737;SDS011;29398;45.328;5.558;2023-05-14T00:31:41;11.48;;;7.25;;
7737;SDS011;29398;45.328;5.558;2023-05-14T00:32:43;9.27;;;7.15;;
7737;SDS011;29398;45.328;5.558;2023-05-14T00:33:44;8.27;;;6.60;;
7737;SDS011;29398;45.328;5.558;2023-05-14T00:34:46;10.30;;;7.50;;
7737;SDS011;29398;45.328;5.558;2023-05-14T00:35:48;7.90;;;7.05;;
7737;SDS011;29398;45.328;5.558;2023-05-14T00:36:50;8.73;;;7.75;;
7737;SDS011;29398;45.328;5.558;2023-05-14T00:37:52;10.55;;;7.50;;
7737;SDS011;29398;45.328;5.558;2023-05-14T00:38:54;9.07;;;7.20;;
7737;SDS011;29398;45.328;5.558;2023-05-14T00:39:55;13.57;;;7.78;;
7737;SDS011;29398;45.328;5.558;2023-05-14T00:40:57;9.55;;;7.72;;
7737;SDS011;29398;45.328;5.558;2023-05-14T00:41:58;10.45;;;7.28;;
7737;SDS011;29398;45.328;5.558;2023-05-14T00:43:02;9.85;;;8.35;;
7737;SDS011;29398;45.328;5.558;2023-05-14T00:44:03;8.35;;;7.55;;
7737;SDS011;29398;45.328;5.558;2023-05-14T00:45:06;9.80;;;7.78;;
7737;SDS011;29398;45.328;5.558;2023-05-14T00:46:07;13.73;;;7.40;;
7737;SDS011;29398;45.328;5.558;2023-05-14T00:47:11;9.10;;;7.88;;
7737;SDS011;29398;45.328;5.558;2023-05-14T00:48:12;10.00;;;7.13;;
7737;SDS011;29398;45.328;5.558;2023-05-14T00:49:15;9.73;;;7.53;;
7737;SDS011;29398;45.328;5.558;2023-05-14T00:50:16;8.63;;;7.40;;
7737;SDS011;29398;45.328;5.558;2023-05-14T00:51:19;9.80;;;8.63;;
7737;SDS011;29398;45.328;5.558;2023-05-14T00:52:20;10.77;;;7.95;;
7737;SDS011;29398;45.328;5.558;2023-05-14T00:53:22;8.98;;;8.07;;
7737;SDS011;29398;45.328;5.558;2023-05-14T00:54:23;10.07;;;8.40;;
7737;SDS011;29398;45.328;5.558;2023-05-14T00:55:26;11.15;;;8.85;;
7737;SDS011;29398;45.328;5.558;2023-05-14T00:56:29;11.65;;;9.77;;
7737;SDS011;29398;45.328;5.558;2023-05-14T00:57:31;10.55;;;8.50;;
7737;SDS011;29398;45.328;5.558;2023-05-14T00:58:34;10.43;;;9.32;;
7737;SDS011;29398;45.328;5.558;2023-05-14T00:59:36;12.27;;;9.73;;
7737;SDS011;29398;45.328;5.558;2023-05-14T01:00:41;12.05;;;9.20;;
7737;SDS011;29398;45.328;5.558;2023-05-14T01:01:43;10.65;;;9.18;;
7737;SDS011;29398;45.328;5.558;2023-05-14T01:02:44;11.15;;;9.93;;
7737;SDS011;29398;45.328;5.558;2023-05-14T01:03:46;8.75;;;7.78;;
7737;SDS011;29398;45.328;5.558;2023-05-14T01:04:48;8.38;;;7.50;;
7737;SDS011;29398;45.328;5.558;2023-05-14T01:05:52;9.43;;;7.85;;
7737;SDS011;29398;45.328;5.558;2023-05-14T01:07:08;11.48;;;8.93;;
7737;SDS011;29398;45.328;5.558;2023-05-14T01:08:21;9.82;;;8.48;;
7737;SDS011;29398;45.328;5.558;2023-05-14T01:09:33;10.05;;;9.00;;
7737;SDS011;29398;45.328;5.558;2023-05-14T01:10:44;11.00;;;8.90;;
7737;SDS011;29398;45.328;5.558;2023-05-14T01:11:53;10.32;;;8.20;;
7737;SDS011;29398;45.328;5.558;2023-05-14T01:13:01;13.93;;;8.40;;
7737;SDS011;29398;45.328;5.558;2023-05-14T01:14:11;8.90;;;7.75;;
7737;SDS011;29398;45.328;5.558;2023-05-14T01:15:22;8.13;;;7.20;;
7737;SDS011;29398;45.328;5.558;2023-05-14T01:16:27;8.82;;;7.53;;
7737;SDS011;29398;45.328;5.558;2023-05-14T01:17:31;10.98;;;8.02;;
7737;SDS011;29398;45.328;5.558;2023-05-14T01:18:35;8.30;;;7.50;;
7737;SDS011;29398;45.328;5.558;2023-05-14T01:19:38;9.43;;;7.53;;
7737;SDS011;29398;45.328;5.558;2023-05-14T01:20:41;7.25;;;6.55;;
7737;SDS011;29398;45.328;5.558;2023-05-14T01:21:45;10.45;;;7.47;;
7737;SDS011;29398;45.328;5.558;2023-05-14T01:22:46;8.50;;;6.45;;
7737;SDS011;29398;45.328;5.558;2023-05-14T01:23:48;8.98;;;6.65;;
7737;SDS011;29398;45.328;5.558;2023-05-14T01:24:49;7.13;;;6.05;;
7737;SDS011;29398;45.328;5.558;2023-05-14T01:25:51;9.18;;;6.07;;
7737;SDS011;29398;45.328;5.558;2023-05-14T01:26:52;8.77;;;6.10;;
7737;SDS011;29398;45.328;5.558;2023-05-14T01:28:00;9.38;;;6.45;;
7737;SDS011;29398;45.328;5.558;2023-05-14T01:29:07;9.10;;;5.85;;
7737;SDS011;29398;45.328;5.558;2023-05-14T01:30:16;9.63;;;6.03;;
7737;SDS011;29398;45.328;5.558;2023-05-14T01:31:22;8.32;;;6.78;;
7737;SDS011;29398;45.328;5.558;2023-05-14T01:32:28;8.80;;;6.68;;
7737;SDS011;29398;45.328;5.558;2023-05-14T01:33:30;6.07;;;4.90;;
7737;SDS011;29398;45.328;5.558;2023-05-14T01:34:35;6.40;;;5.80;;
7737;SDS011;29398;45.328;5.558;2023-05-14T01:35:39;6.00;;;5.30;;
7737;SDS011;29398;45.328;5.558;2023-05-14T01:36:41;8.75;;;5.35;;
7737;SDS011;29398;45.328;5.558;2023-05-14T01:37:45;5.55;;;4.97;;
7737;SDS011;29398;45.328;5.558;2023-05-14T01:38:49;5.40;;;4.90;;
7737;SDS011;29398;45.328;5.558;2023-05-14T01:39:51;6.93;;;4.90;;
7737;SDS011;29398;45.328;5.558;2023-05-14T01:40:53;7.40;;;4.40;;
7737;SDS011;29398;45.328;5.558;2023-05-14T01:41:55;7.78;;;4.85;;
7737;SDS011;29398;45.328;5.558;2023-05-14T01:42:58;5.78;;;5.28;;
7737;SDS011;29398;45.328;5.558;2023-05-14T01:44:00;5.47;;;4.97;;
7737;SDS011;29398;45.328;5.558;2023-05-14T01:45:02;7.70;;;4.78;;
7737;SDS011;29398;45.328;5.558;2023-05-14T01:46:04;5.03;;;4.63;;
7737;SDS011;29398;45.328;5.558;2023-05-14T01:47:06;6.32;;;5.40;;
7737;SDS011;29398;45.328;5.558;2023-05-14T01:48:08;9.50;;;5.13;;
7737;SDS011;29398;45.328;5.558;2023-05-14T01:49:10;6.07;;;4.72;;
7737;SDS011;29398;45.328;5.558;2023-05-14T01:50:11;4.82;;;4.32;;
7737;SDS011;29398;45.328;5.558;2023-05-14T01:51:13;4.90;;;4.40;;
7737;SDS011;29398;45.328;5.558;2023-05-14T01:52:16;7.15;;;4.30;;
7737;SDS011;29398;45.328;5.558;2023-05-14T01:53:20;4.25;;;3.85;;
7737;SDS011;29398;45.328;5.558;2023-05-14T01:54:21;4.70;;;4.20;;
7737;SDS011;29398;45.328;5.558;2023-05-14T01:55:23;6.25;;;3.72;;
7737;SDS011;29398;45.328;5.558;2023-05-14T01:56:25;7.45;;;4.25;;
7737;SDS011;29398;45.328;5.558;2023-05-14T01:57:27;9.18;;;4.28;;
7737;SDS011;29398;45.328;5.558;2023-05-14T01:58:28;5.68;;;4.38;;
7737;SDS011;29398;45.328;5.558;2023-05-14T01:59:30;6.03;;;5.43;;
7737;SDS011;29398;45.328;5.558;2023-05-14T02:00:31;5.75;;;4.30;;
7737;SDS011;29398;45.328;5.558;2023-05-14T02:01:33;5.20;;;4.70;;
7737;SDS011;29398;45.328;5.558;2023-05-14T02:02:34;6.65;;;4.40;;
7737;SDS011;29398;45.328;5.558;2023-05-14T02:03:36;5.05;;;4.22;;
7737;SDS011;29398;45.328;5.558;2023-05-14T02:04:38;7.25;;;4.93;;
7737;SDS011;29398;45.328;5.558;2023-05-14T02:05:40;5.22;;;4.72;;
7737;SDS011;29398;45.328;5.558;2023-05-14T02:06:41;6.43;;;5.85;;
7737;SDS011;29398;45.328;5.558;2023-05-14T02:07:45;6.05;;;5.30;;
7737;SDS011;29398;45.328;5.558;2023-05-14T02:08:46;6.05;;;5.45;;
7737;SDS011;29398;45.328;5.558;2023-05-14T02:09:48;7.75;;;5.55;;
7737;SDS011;29398;45.328;5.558;2023-05-14T02:10:49;6.53;;;5.93;;
7737;SDS011;29398;45.328;5.558;2023-05-14T02:11:51;6.63;;;5.97;;
7737;SDS011;29398;45.328;5.558;2023-05-14T02:12:53;8.07;;;6.65;;
7737;SDS011;29398;45.328;5.558;2023-05-14T02:13:55;7.93;;;6.78;;
7737;SDS011;29398;45.328;5.558;2023-05-14T02:14:57;10.15;;;6.88;;
7737;SDS011;29398;45.328;5.558;2023-05-14T02:15:58;8.25;;;6.63;;
7737;SDS011;29398;45.328;5.558;2023-05-14T02:17:00;9.40;;;6.32;;
7737;SDS011;29398;45.328;5.558;2023-05-14T02:18:02;8.18;;;6.90;;
7737;SDS011;29398;45.328;5.558;2023-05-14T02:19:05;10.93;;;7.13;;
7737;SDS011;29398;45.328;5.558;2023-05-14T02:20:06;9.82;;;7.72;;
7737;SDS011;29398;45.328;5.558;2023-05-14T02:21:09;7.00;;;6.30;;
7737;SDS011;29398;45.328;5.558;2023-05-14T02:22:11;8.80;;;7.80;;
7737;SDS011;29398;45.328;5.558;2023-05-14T02:23:14;10.30;;;7.85;;
7737;SDS011;29398;45.328;5.558;2023-05-14T02:24:16;9.73;;;7.53;;
7737;SDS011;29398;45.328;5.558;2023-05-14T02:25:18;9.95;;;7.50;;
7737;SDS011;29398;45.328;5.558;2023-05-14T02:26:19;8.63;;;7.70;;
7737;SDS011;29398;45.328;5.558;2023-05-14T02:27:21;7.78;;;7.07;;
7737;SDS011;29398;45.328;5.558;2023-05-14T02:28:22;10.73;;;7.63;;
7737;SDS011;29398;45.328;5.558;2023-05-14T02:29:24;8.30;;;7.50;;
7737;SDS011;29398;45.328;5.558;2023-05-14T02:30:25;8.45;;;7.55;;
7737;SDS011;29398;45.328;5.558;2023-05-14T02:31:29;8.68;;;6.90;;
7737;SDS011;29398;45.328;5.558;2023-05-14T02:32:30;8.70;;;6.50;;
7737;SDS011;29398;45.328;5.558;2023-05-14T02:33:32;6.97;;;6.05;;
7737;SDS011;29398;45.328;5.558;2023-05-14T02:34:33;7.97;;;6.50;;
7737;SDS011;29398;45.328;5.558;2023-05-14T02:35:35;6.88;;;6.20;;
7737;SDS011;29398;45.328;5.558;2023-05-14T02:36:36;9.57;;;6.68;;
7737;SDS011;29398;45.328;5.558;2023-05-14T02:37:39;7.43;;;6.35;;
7737;SDS011;29398;45.328;5.558;2023-05-14T02:38:41;7.35;;;6.65;;
7737;SDS011;29398;45.328;5.558;2023-05-14T02:39:43;8.23;;;6.13;;
7737;SDS011;29398;45.328;5.558;2023-05-14T02:40:44;9.32;;;7.05;;
7737;SDS011;29398;45.328;5.558;2023-05-14T02:41:46;8.57;;;6.68;;
7737;SDS011;29398;45.328;5.558;2023-05-14T02:42:47;8.07;;;7.25;;
7737;SDS011;29398;45.328;5.558;2023-05-14T02:43:50;9.60;;;7.40;;
7737;SDS011;29398;45.328;5.558;2023-05-14T02:44:51;7.70;;;6.90;;
7737;SDS011;29398;45.328;5.558;2023-05-14T02:45:53;8.52;;;7.20;;
7737;SDS011;29398;45.328;5.558;2023-05-14T02:46:55;7.90;;;6.68;;
7737;SDS011;29398;45.328;5.558;2023-05-14T02:47:57;7.90;;;7.13;;
7737;SDS011;29398;45.328;5.558;2023-05-14T02:48:58;11.10;;;9.40;;
7737;SDS011;29398;45.328;5.558;2023-05-14T02:50:01;9.55;;;8.63;;
7737;SDS011;29398;45.328;5.558;2023-05-14T02:51:04;11.05;;;9.35;;
7737;SDS011;29398;45.328;5.558;2023-05-14T02:52:06;11.65;;;9.45;;
7737;SDS011;29398;45.328;5.558;2023-05-14T02:53:08;10.45;;;9.35;;
7737;SDS011;29398;45.328;5.558;2023-05-14T02:54:11;9.82;;;8.43;;
7737;SDS011;29398;45.328;5.558;2023-05-14T02:55:12;14.80;;;9.18;;
7737;SDS011;29398;45.328;5.558;2023-05-14T02:56:14;10.82;;;9.73;;
7737;SDS011;29398;45.328;5.558;2023-05-14T02:57:15;15.90;;;9.38;;
7737;SDS011;29398;45.328;5.558;2023-05-14T02:58:17;14.95;;;9.93;;
7737;SDS011;29398;45.328;5.558;2023-05-14T02:59:19;12.27;;;9.02;;
7737;SDS011;29398;45.328;5.558;2023-05-14T03:00:21;11.40;;;9.98;;
7737;SDS011;29398;45.328;5.558;2023-05-14T03:01:22;9.68;;;8.77;;
7737;SDS011;29398;45.328;5.558;2023-05-14T03:02:24;13.98;;;8.95;;
7737;SDS011;29398;45.328;5.558;2023-05-14T03:03:26;12.07;;;8.90;;
7737;SDS011;29398;45.328;5.558;2023-05-14T03:04:29;10.70;;;9.20;;
7737;SDS011;29398;45.328;5.558;2023-05-14T03:05:30;11.88;;;8.63;;
7737;SDS011;29398;45.328;5.558;2023-05-14T03:06:32;8.48;;;7.65;;
7737;SDS011;29398;45.328;5.558;2023-05-14T03:07:33;8.18;;;7.28;;
7737;SDS011;29398;45.328;5.558;2023-05-14T03:08:35;12.70;;;8.30;;
7737;SDS011;29398;45.328;5.558;2023-05-14T03:09:37;9.52;;;8.52;;
7737;SDS011;29398;45.328;5.558;2023-05-14T03:10:40;10.52;;;8.65;;
7737;SDS011;29398;45.328;5.558;2023-05-14T03:11:41;9.93;;;8.32;;
7737;SDS011;29398;45.328;5.558;2023-05-14T03:12:43;12.25;;;8.77;;
7737;SDS011;29398;45.328;5.558;2023-05-14T03:13:44;11.95;;;9.15;;
7737;SDS011;29398;45.328;5.558;2023-05-14T03:14:46;10.57;;;7.88;;
7737;SDS011;29398;45.328;5.558;2023-05-14T03:15:47;9.35;;;8.45;;
7737;SDS011;29398;45.328;5.558;2023-05-14T03:16:53;9.32;;;8.23;;
7737;SDS011;29398;45.328;5.558;2023-05-14T03:17:55;12.68;;;8.90;;
7737;SDS011;29398;45.328;5.558;2023-05-14T03:18:57;9.30;;;8.32;;
7737;SDS011;29398;45.328;5.558;2023-05-14T03:19:58;9.32;;;8.32;;
7737;SDS011;29398;45.328;5.558;2023-05-14T03:21:00;12.85;;;8.55;;
7737;SDS011;29398;45.328;5.558;2023-05-14T03:22:03;9.90;;;8.63;;
7737;SDS011;29398;45.328;5.558;2023-05-14T03:23:05;13.32;;;9.05;;
7737;SDS011;29398;45.328;5.558;2023-05-14T03:24:06;9.90;;;8.90;;
7737;SDS011;29398;45.328;5.558;2023-05-14T03:25:10;11.15;;;9.00;;
7737;SDS011;29398;45.328;5.558;2023-05-14T03:26:11;10.93;;;8.73;;
7737;SDS011;29398;45.328;5.558;2023-05-14T03:27:13;12.68;;;9.48;;
7737;SDS011;29398;45.328;5.558;2023-05-14T03:28:14;10.48;;;8.23;;
7737;SDS011;29398;45.328;5.558;2023-05-14T03:29:16;10.93;;;8.38;;
7737;SDS011;29398;45.328;5.558;2023-05-14T03:30:17;11.82;;;8.68;;
7737;SDS011;29398;45.328;5.558;2023-05-14T03:31:19;13.23;;;9.25;;
7737;SDS011;29398;45.328;5.558;2023-05-14T03:32:20;10.13;;;8.30;;
7737;SDS011;29398;45.328;5.558;2023-05-14T03:33:22;10.27;;;8.80;;
7737;SDS011;29398;45.328;5.558;2023-05-14T03:34:23;10.50;;;8.10;;
7737;SDS011;29398;45.328;5.558;2023-05-14T03:35:25;9.77;;;8.77;;
7737;SDS011;29398;45.328;5.558;2023-05-14T03:36:27;9.43;;;8.40;;
7737;SDS011;29398;45.328;5.558;2023-05-14T03:37:29;11.25;;;7.97;;
7737;SDS011;29398;45.328;5.558;2023-05-14T03:38:30;9.85;;;7.70;;
7737;SDS011;29398;45.328;5.558;2023-05-14T03:39:32;11.57;;;8.38;;
7737;SDS011;29398;45.328;5.558;2023-05-14T03:40:35;8.73;;;7.85;;
7737;SDS011;29398;45.328;5.558;2023-05-14T03:41:37;9.20;;;7.88;;
7737;SDS011;29398;45.328;5.558;2023-05-14T03:42:38;8.00;;;7.20;;
7737;SDS011;29398;45.328;5.558;2023-05-14T03:43:40;10.02;;;9.10;;
7737;SDS011;29398;45.328;5.558;2023-05-14T03:44:41;7.85;;;6.93;;
7737;SDS011;29398;45.328;5.558;2023-05-14T03:45:43;8.15;;;7.15;;
7737;SDS011;29398;45.328;5.558;2023-05-14T03:46:45;8.43;;;7.45;;
7737;SDS011;29398;45.328;5.558;2023-05-14T03:47:47;7.50;;;6.88;;
7737;SDS011;29398;45.328;5.558;2023-05-14T03:48:48;8.68;;;7.85;;
7737;SDS011;29398;45.328;5.558;2023-05-14T03:49:50;9.48;;;8.30;;
7737;SDS011;29398;45.328;5.558;2023-05-14T03:50:51;9.55;;;8.25;;
7737;SDS011;29398;45.328;5.558;2023-05-14T03:51:53;10.93;;;7.75;;
7737;SDS011;29398;45.328;5.558;2023-05-14T03:52:55;8.77;;;7.97;;
7737;SDS011;29398;45.328;5.558;2023-05-14T03:53:57;8.77;;;7.65;;
7737;SDS011;29398;45.328;5.558;2023-05-14T03:54:58;9.35;;;8.45;;
7737;SDS011;29398;45.328;5.558;2023-05-14T03:56:01;8.68;;;7.88;;
7737;SDS011;29398;45.328;5.558;2023-05-14T03:57:03;9.95;;;8.18;;
7737;SDS011;29398;45.328;5.558;2023-05-14T03:58:05;8.88;;;8.00;;
7737;SDS011;29398;45.328;5.558;2023-05-14T03:59:12;8.30;;;7.57;;
7737;SDS011;29398;45.328;5.558;2023-05-14T04:00:15;8.88;;;7.97;;
7737;SDS011;29398;45.328;5.558;2023-05-14T04:01:19;9.95;;;7.95;;
7737;SDS011;29398;45.328;5.558;2023-05-14T04:02:21;8.98;;;7.97;;
7737;SDS011;29398;45.328;5.558;2023-05-14T04:03:22;8.82;;;8.00;;
7737;SDS011;29398;45.328;5.558;2023-05-14T04:04:24;8.82;;;7.85;;
7737;SDS011;29398;45.328;5.558;2023-05-14T04:05:25;8.68;;;7.88;;
7737;SDS011;29398;45.328;5.558;2023-05-14T04:06:27;8.43;;;7.30;;
7737;SDS011;29398;45.328;5.558;2023-05-14T04:07:28;9.70;;;7.95;;
7737;SDS011;29398;45.328;5.558;2023-05-14T04:08:30;8.73;;;7.82;;
7737;SDS011;29398;45.328;5.558;2023-05-14T04:09:33;7.82;;;7.00;;
7737;SDS011;29398;45.328;5.558;2023-05-14T04:10:35;6.95;;;6.35;;
7737;SDS011;29398;45.328;5.558;2023-05-14T04:11:38;8.18;;;6.97;;
7737;SDS011;29398;45.328;5.558;2023-05-14T04:12:40;7.63;;;6.90;;
7737;SDS011;29398;45.328;5.558;2023-05-14T04:13:42;8.63;;;7.40;;
7737;SDS011;29398;45.328;5.558;2023-05-14T04:14:44;8.18;;;7.38;;
7737;SDS011;29398;45.328;5.558;2023-05-14T04:15:45;10.00;;;7.47;;
7737;SDS011;29398;45.328;5.558;2023-05-14T04:16:47;7.47;;;6.82;;
7737;SDS011;29398;45.328;5.558;2023-05-14T04:17:48;8.70;;;7.20;;
7737;SDS011;29398;45.328;5.558;2023-05-14T04:18:50;9.43;;;7.75;;
7737;SDS011;29398;45.328;5.558;2023-05-14T04:19:51;8.45;;;7.55;;
7737;SDS011;29398;45.328;5.558;2023-05-14T04:20:53;8.10;;;7.13;;
7737;SDS011;29398;45.328;5.558;2023-05-14T04:21:54;7.13;;;6.47;;
7737;SDS011;29398;45.328;5.558;2023-05-14T04:22:56;7.20;;;6.50;;
7737;SDS011;29398;45.328;5.558;2023-05-14T04:23:58;6.95;;;6.35;;
7737;SDS011;29398;45.328;5.558;2023-05-14T04:25:00;7.10;;;6.35;;
7737;SDS011;29398;45.328;5.558;2023-05-14T04:26:01;7.18;;;6.47;;
7737;SDS011;29398;45.328;5.558;2023-05-14T04:27:05;7.88;;;6.90;;
7737;SDS011;29398;45.328;5.558;2023-05-14T04:28:06;9.05;;;6.57;;
7737;SDS011;29398;45.328;5.558;2023-05-14T04:29:08;8.73;;;6.68;;
7737;SDS011;29398;45.328;5.558;2023-05-14T04:30:09;6.88;;;6.18;;
7737;SDS011;29398;45.328;5.558;2023-05-14T04:31:12;13.50;;;6.95;;
7737;SDS011;29398;45.328;5.558;2023-05-14T04:32:13;8.98;;;8.18;;
7737;SDS011;29398;45.328;5.558;2023-05-14T04:33:15;9.73;;;8.10;;
7737;SDS011;29398;45.328;5.558;2023-05-14T04:34:16;12.95;;;8.65;;
7737;SDS011;29398;45.328;5.558;2023-05-14T04:35:18;10.60;;;7.78;;
7737;SDS011;29398;45.328;5.558;2023-05-14T04:36:20;10.13;;;8.77;;
7737;SDS011;29398;45.328;5.558;2023-05-14T04:37:22;8.95;;;8.07;;
7737;SDS011;29398;45.328;5.558;2023-05-14T04:38:23;9.88;;;8.82;;
7737;SDS011;29398;45.328;5.558;2023-05-14T04:39:25;10.55;;;7.80;;
7737;SDS011;29398;45.328;5.558;2023-05-14T04:40:27;8.90;;;8.02;;
7737;SDS011;29398;45.328;5.558;2023-05-14T04:41:30;10.52;;;9.10;;
7737;SDS011;29398;45.328;5.558;2023-05-14T04:42:32;10.30;;;9.05;;
7737;SDS011;29398;45.328;5.558;2023-05-14T04:43:34;10.25;;;9.00;;
7737;SDS011;29398;45.328;5.558;2023-05-14T04:44:35;10.90;;;8.98;;
7737;SDS011;29398;45.328;5.558;2023-05-14T04:45:37;12.00;;;9.13;;
7737;SDS011;29398;45.328;5.558;2023-05-14T04:46:40;10.85;;;9.73;;
7737;SDS011;29398;45.328;5.558;2023-05-14T04:47:42;9.98;;;9.07;;
7737;SDS011;29398;45.328;5.558;2023-05-14T04:48:44;8.63;;;7.82;;
7737;SDS011;29398;45.328;5.558;2023-05-14T04:49:46;8.80;;;7.90;;
7737;SDS011;29398;45.328;5.558;2023-05-14T04:50:47;9.02;;;8.10;;
7737;SDS011;29398;45.328;5.558;2023-05-14T04:51:49;10.27;;;9.27;;
7737;SDS011;29398;45.328;5.558;2023-05-14T04:52:50;10.85;;;8.25;;
7737;SDS011;29398;45.328;5.558;2023-05-14T04:53:52;10.85;;;8.88;;
7737;SDS011;29398;45.328;5.558;2023-05-14T04:54:53;9.25;;;8.25;;
7737;SDS011;29398;45.328;5.558;2023-05-14T04:55:56;11.95;;;8.00;;
7737;SDS011;29398;45.328;5.558;2023-05-14T04:56:57;13.43;;;8.68;;
7737;SDS011;29398;45.328;5.558;2023-05-14T04:58:03;9.80;;;8.25;;
7737;SDS011;29398;45.328;5.558;2023-05-14T04:59:04;8.43;;;7.60;;
7737;SDS011;29398;45.328;5.558;2023-05-14T05:00:07;8.52;;;7.45;;
7737;SDS011;29398;45.328;5.558;2023-05-14T05:01:09;8.77;;;7.88;;
7737;SDS011;29398;45.328;5.558;2023-05-14T05:02:11;10.95;;;8.85;;
7737;SDS011;29398;45.328;5.558;2023-05-14T05:03:12;9.25;;;8.30;;
7737;SDS011;29398;45.328;5.558;2023-05-14T05:04:14;9.45;;;7.75;;
7737;SDS011;29398;45.328;5.558;2023-05-14T05:05:15;9.45;;;7.57;;
7737;SDS011;29398;45.328;5.558;2023-05-14T05:06:17;10.60;;;7.90;;
7737;SDS011;29398;45.328;5.558;2023-05-14T05:07:19;9.27;;;7.38;;
7737;SDS011;29398;45.328;5.558;2023-05-14T05:08:21;8.38;;;7.50;;
7737;SDS011;29398;45.328;5.558;2023-05-14T05:09:22;8.75;;;7.50;;
7737;SDS011;29398;45.328;5.558;2023-05-14T05:10:24;8.52;;;6.97;;
7737;SDS011;29398;45.328;5.558;2023-05-14T05:11:25;8.48;;;7.45;;
7737;SDS011;29398;45.328;5.558;2023-05-14T05:12:27;7.30;;;6.60;;
7737;SDS011;29398;45.328;5.558;2023-05-14T05:13:30;7.93;;;6.97;;
7737;SDS011;29398;45.328;5.558;2023-05-14T05:14:32;8.48;;;6.32;;
7737;SDS011;29398;45.328;5.558;2023-05-14T05:15:33;6.10;;;5.55;;
7737;SDS011;29398;45.328;5.558;2023-05-14T05:16:35;5.10;;;4.70;;
7737;SDS011;29398;45.328;5.558;2023-05-14T05:17:36;5.70;;;5.20;;
7737;SDS011;29398;45.328;5.558;2023-05-14T05:18:38;5.90;;;4.07;;
7737;SDS011;29398;45.328;5.558;2023-05-14T05:19:40;7.80;;;4.57;;
7737;SDS011;29398;45.328;5.558;2023-05-14T05:20:42;5.20;;;4.70;;
7737;SDS011;29398;45.328;5.558;2023-05-14T05:21:43;5.03;;;4.50;;
7737;SDS011;29398;45.328;5.558;2023-05-14T05:22:45;5.65;;;4.32;;
7737;SDS011;29398;45.328;5.558;2023-05-14T05:23:46;4.93;;;4.20;;
7737;SDS011;29398;45.328;5.558;2023-05-14T05:24:48;5.65;;;4.45;;
7737;SDS011;29398;45.328;5.558;2023-05-14T05:25:49;4.68;;;4.15;;
7737;SDS011;29398;45.328;5.558;2023-05-14T05:26:51;4.05;;;3.75;;
7737;SDS011;29398;45.328;5.558;2023-05-14T05:27:53;4.28;;;3.92;;
7737;SDS011;29398;45.328;5.558;2023-05-14T05:28:56;4.22;;;3.83;;
7737;SDS011;29398;45.328;5.558;2023-05-14T05:29:57;5.65;;;4.30;;
7737;SDS011;29398;45.328;5.558;2023-05-14T05:31:00;4.40;;;3.55;;
7737;SDS011;29398;45.328;5.558;2023-05-14T05:32:01;5.35;;;4.22;;
7737;SDS011;29398;45.328;5.558;2023-05-14T05:33:04;5.82;;;4.40;;
7737;SDS011;29398;45.328;5.558;2023-05-14T05:34:05;5.20;;;4.70;;
7737;SDS011;29398;45.328;5.558;2023-05-14T05:35:07;5.55;;;4.07;;
7737;SDS011;29398;45.328;5.558;2023-05-14T05:36:10;4.72;;;3.95;;
7737;SDS011;29398;45.328;5.558;2023-05-14T05:37:11;4.10;;;3.70;;
7737;SDS011;29398;45.328;5.558;2023-05-14T05:38:14;5.80;;;3.83;;
7737;SDS011;29398;45.328;5.558;2023-05-14T05:39:15;5.20;;;4.25;;
7737;SDS011;29398;45.328;5.558;2023-05-14T05:40:17;4.28;;;3.88;;
7737;SDS011;29398;45.328;5.558;2023-05-14T05:41:18;4.20;;;3.38;;
7737;SDS011;29398;45.328;5.558;2023-05-14T05:42:20;4.20;;;3.80;;
7737;SDS011;29398;45.328;5.558;2023-05-14T05:43:22;4.43;;;4.03;;
7737;SDS011;29398;45.328;5.558;2023-05-14T05:44:25;6.80;;;4.05;;
7737;SDS011;29398;45.328;5.558;2023-05-14T05:45:26;4.70;;;4.30;;
7737;SDS011;29398;45.328;5.558;2023-05-14T05:46:28;4.25;;;3.85;;
7737;SDS011;29398;45.328;5.558;2023-05-14T05:47:29;4.50;;;3.63;;
7737;SDS011;29398;45.328;5.558;2023-05-14T05:48:31;4.07;;;3.70;;
7737;SDS011;29398;45.328;5.558;2023-05-14T05:49:32;4.03;;;3.42;;
7737;SDS011;29398;45.328;5.558;2023-05-14T05:50:36;5.35;;;4.30;;
7737;SDS011;29398;45.328;5.558;2023-05-14T05:51:37;5.03;;;4.50;;
7737;SDS011;29398;45.328;5.558;2023-05-14T05:52:40;4.78;;;3.78;;
7737;SDS011;29398;45.328;5.558;2023-05-14T05:53:41;4.50;;;4.10;;
7737;SDS011;29398;45.328;5.558;2023-05-14T05:54:43;4.10;;;3.80;;
7737;SDS011;29398;45.328;5.558;2023-05-14T05:55:45;5.00;;;4.32;;
7737;SDS011;29398;45.328;5.558;2023-05-14T05:56:47;4.97;;;4.40;;
7737;SDS011;29398;45.328;5.558;2023-05-14T05:57:48;9.00;;;6.13;;
7737;SDS011;29398;45.328;5.558;2023-05-14T05:58:50;6.13;;;5.53;;
7737;SDS011;29398;45.328;5.558;2023-05-14T05:59:52;6.55;;;5.95;;
7737;SDS011;29398;45.328;5.558;2023-05-14T06:00:54;7.30;;;6.22;;
7737;SDS011;29398;45.328;5.558;2023-05-14T06:01:57;6.32;;;5.47;;
7737;SDS011;29398;45.328;5.558;2023-05-14T06:02:59;6.35;;;5.75;;
7737;SDS011;29398;45.328;5.558;2023-05-14T06:04:00;7.20;;;5.88;;
7737;SDS011;29398;45.328;5.558;2023-05-14T06:05:04;6.72;;;6.13;;
7737;SDS011;29398;45.328;5.558;2023-05-14T06:06:06;9.27;;;5.90;;
7737;SDS011;29398;45.328;5.558;2023-05-14T06:07:08;7.38;;;6.65;;
7737;SDS011;29398;45.328;5.558;2023-05-14T06:08:09;8.73;;;6.30;;
7737;SDS011;29398;45.328;5.558;2023-05-14T06:09:11;8.25;;;6.15;;
7737;SDS011;29398;45.328;5.558;2023-05-14T06:10:12;7.10;;;6.22;;
7737;SDS011;29398;45.328;5.558;2023-05-14T06:11:15;6.57;;;5.88;;
7737;SDS011;29398;45.328;5.558;2023-05-14T06:12:16;6.70;;;5.95;;
7737;SDS011;29398;45.328;5.558;2023-05-14T06:13:18;6.88;;;6.13;;
7737;SDS011;29398;45.328;5.558;2023-05-14T06:14:19;6.45;;;5.68;;
7737;SDS011;29398;45.328;5.558;2023-05-14T06:15:22;9.70;;;6.28;;
7737;SDS011;29398;45.328;5.558;2023-05-14T06:16:23;7.40;;;6.70;;
7737;SDS011;29398;45.328;5.558;2023-05-14T06:17:25;6.22;;;5.70;;
7737;SDS011;29398;45.328;5.558;2023-05-14T06:18:26;9.18;;;6.78;;
7737;SDS011;29398;45.328;5.558;2023-05-14T06:19:29;7.18;;;5.78;;